CYCY

Clyde River Airport

Clyde River, Canada
METAR CYCY 151300Z AUTO 32014KT 9SM -SN OVC008 M16/M18 A2982 RMK SLP102
Observed Flight Rules
Dec-15 @ 13:00 UTC (52 minutes ago) Instrument Flight Rules
Wind Visibility Clouds Conditions
320° at 14 knots 9 miles
  • Overcast at 800' AGL
  • Light Snow
Temperatures Readings
Current -16°C / 3°F
Dewpoint -18°C / -0°F
Humidity 85%
Altimeter 29.82" Hg
Pressure 1010.2 hPa
Elevation 26
METAR CYCY 151300Z AUTO 32014KT 9SM -SN OVC008 M16/M18 A2982 RMK SLP102
Observed Flight Rules
Dec-15 @ 13:00 UTC
(52 minutes ago)
IFR
Wind Visibility
320° at 14 knots 9 miles
Clouds
  • Overcast at 800' AGL
Conditions
  • Light Snow
Temperature Dewpoint
-16°C / 3°F -18°C / -0°F
Humidity Altimeter Pressure
85% 29.82" Hg 1010.2 hPa